sensor_id;sensor_type;location;lat;lon;timestamp;P1;durP1;ratioP1;P2;durP2;ratioP2
33491;SDS011;20010;51.488;7.232;2023-04-12T00:00:07;8.30;;;7.55;;
33491;SDS011;20010;51.488;7.232;2023-04-12T00:02:37;7.50;;;7.00;;
33491;SDS011;20010;51.488;7.232;2023-04-12T00:05:05;7.88;;;7.22;;
33491;SDS011;20010;51.488;7.232;2023-04-12T00:07:34;10.52;;;7.75;;
33491;SDS011;20010;51.488;7.232;2023-04-12T00:10:01;7.75;;;7.03;;
33491;SDS011;20010;51.488;7.232;2023-04-12T00:12:28;7.20;;;6.80;;
33491;SDS011;20010;51.488;7.232;2023-04-12T00:14:54;8.15;;;7.45;;
33491;SDS011;20010;51.488;7.232;2023-04-12T00:17:21;7.85;;;7.20;;
33491;SDS011;20010;51.488;7.232;2023-04-12T00:19:47;10.40;;;7.50;;
33491;SDS011;20010;51.488;7.232;2023-04-12T00:22:15;12.60;;;7.32;;
33491;SDS011;20010;51.488;7.232;2023-04-12T00:24:42;8.55;;;7.88;;
33491;SDS011;20010;51.488;7.232;2023-04-12T00:27:08;8.13;;;7.32;;
33491;SDS011;20010;51.488;7.232;2023-04-12T00:29:35;7.00;;;6.60;;
33491;SDS011;20010;51.488;7.232;2023-04-12T00:32:02;10.98;;;7.43;;
33491;SDS011;20010;51.488;7.232;2023-04-12T00:34:30;12.20;;;7.55;;
33491;SDS011;20010;51.488;7.232;2023-04-12T00:36:57;8.02;;;7.10;;
33491;SDS011;20010;51.488;7.232;2023-04-12T00:39:23;10.05;;;7.47;;
33491;SDS011;20010;51.488;7.232;2023-04-12T00:41:51;7.93;;;7.25;;
33491;SDS011;20010;51.488;7.232;2023-04-12T00:44:17;7.38;;;6.80;;
33491;SDS011;20010;51.488;7.232;2023-04-12T00:46:44;9.55;;;7.70;;
33491;SDS011;20010;51.488;7.232;2023-04-12T00:49:11;7.80;;;7.20;;
33491;SDS011;20010;51.488;7.232;2023-04-12T00:51:38;7.85;;;7.05;;
33491;SDS011;20010;51.488;7.232;2023-04-12T00:54:06;8.38;;;7.57;;
33491;SDS011;20010;51.488;7.232;2023-04-12T00:56:33;9.13;;;8.18;;
33491;SDS011;20010;51.488;7.232;2023-04-12T00:58:59;7.50;;;6.93;;
33491;SDS011;20010;51.488;7.232;2023-04-12T01:01:27;7.25;;;6.65;;
33491;SDS011;20010;51.488;7.232;2023-04-12T01:03:53;8.73;;;7.88;;
33491;SDS011;20010;51.488;7.232;2023-04-12T01:15:08;7.50;;;6.85;;
33491;SDS011;20010;51.488;7.232;2023-04-12T01:17:38;7.60;;;7.10;;
33491;SDS011;20010;51.488;7.232;2023-04-12T01:20:13;7.50;;;7.10;;
33491;SDS011;20010;51.488;7.232;2023-04-12T01:28:19;7.35;;;6.75;;
33491;SDS011;20010;51.488;7.232;2023-04-12T01:30:49;7.25;;;6.75;;
33491;SDS011;20010;51.488;7.232;2023-04-12T01:33:15;8.07;;;6.68;;
33491;SDS011;20010;51.488;7.232;2023-04-12T01:35:43;7.38;;;6.70;;
33491;SDS011;20010;51.488;7.232;2023-04-12T01:38:10;6.93;;;6.53;;
33491;SDS011;20010;51.488;7.232;2023-04-12T01:40:36;7.55;;;6.68;;
33491;SDS011;20010;51.488;7.232;2023-04-12T01:43:09;7.53;;;6.82;;
33491;SDS011;20010;51.488;7.232;2023-04-12T01:48:04;7.65;;;6.95;;
33491;SDS011;20010;51.488;7.232;2023-04-12T01:53:18;7.30;;;6.72;;
33491;SDS011;20010;51.488;7.232;2023-04-12T01:55:48;7.38;;;6.63;;
33491;SDS011;20010;51.488;7.232;2023-04-12T01:58:16;7.80;;;7.00;;
33491;SDS011;20010;51.488;7.232;2023-04-12T02:00:46;7.35;;;6.88;;
33491;SDS011;20010;51.488;7.232;2023-04-12T02:03:13;6.90;;;6.35;;
33491;SDS011;20010;51.488;7.232;2023-04-12T02:05:40;8.80;;;6.72;;
33491;SDS011;20010;51.488;7.232;2023-04-12T02:08:07;7.00;;;6.40;;
33491;SDS011;20010;51.488;7.232;2023-04-12T02:10:34;9.65;;;7.72;;
33491;SDS011;20010;51.488;7.232;2023-04-12T02:13:02;8.07;;;7.53;;
33491;SDS011;20010;51.488;7.232;2023-04-12T02:15:29;7.40;;;6.63;;
33491;SDS011;20010;51.488;7.232;2023-04-12T02:17:56;7.35;;;6.57;;
33491;SDS011;20010;51.488;7.232;2023-04-12T02:20:24;7.78;;;6.55;;
33491;SDS011;20010;51.488;7.232;2023-04-12T02:22:52;7.15;;;6.45;;
33491;SDS011;20010;51.488;7.232;2023-04-12T02:25:19;7.95;;;6.20;;
33491;SDS011;20010;51.488;7.232;2023-04-12T02:27:46;7.70;;;6.70;;
33491;SDS011;20010;51.488;7.232;2023-04-12T02:30:13;7.68;;;6.90;;
33491;SDS011;20010;51.488;7.232;2023-04-12T02:32:40;9.52;;;6.70;;
33491;SDS011;20010;51.488;7.232;2023-04-12T02:35:11;8.18;;;6.25;;
33491;SDS011;20010;51.488;7.232;2023-04-12T02:37:38;6.93;;;6.15;;
33491;SDS011;20010;51.488;7.232;2023-04-12T02:40:05;6.88;;;6.30;;
33491;SDS011;20010;51.488;7.232;2023-04-12T02:42:35;8.27;;;6.53;;
33491;SDS011;20010;51.488;7.232;2023-04-12T02:45:02;7.18;;;6.38;;
33491;SDS011;20010;51.488;7.232;2023-04-12T02:47:29;8.80;;;6.35;;
33491;SDS011;20010;51.488;7.232;2023-04-12T02:49:56;6.78;;;6.00;;
33491;SDS011;20010;51.488;7.232;2023-04-12T02:52:23;8.05;;;6.95;;
33491;SDS011;20010;51.488;7.232;2023-04-12T02:54:50;6.80;;;6.20;;
33491;SDS011;20010;51.488;7.232;2023-04-12T02:57:16;6.47;;;6.05;;
33491;SDS011;20010;51.488;7.232;2023-04-12T02:59:43;6.90;;;6.20;;
33491;SDS011;20010;51.488;7.232;2023-04-12T03:02:10;8.55;;;5.93;;
33491;SDS011;20010;51.488;7.232;2023-04-12T03:04:36;7.65;;;5.30;;
33491;SDS011;20010;51.488;7.232;2023-04-12T03:07:05;6.72;;;5.97;;
33491;SDS011;20010;51.488;7.232;2023-04-12T03:09:31;5.90;;;5.28;;
33491;SDS011;20010;51.488;7.232;2023-04-12T03:11:58;6.18;;;5.70;;
33491;SDS011;20010;51.488;7.232;2023-04-12T03:14:24;6.07;;;5.38;;
33491;SDS011;20010;51.488;7.232;2023-04-12T03:16:51;6.95;;;6.25;;
33491;SDS011;20010;51.488;7.232;2023-04-12T03:19:18;6.40;;;5.85;;
33491;SDS011;20010;51.488;7.232;2023-04-12T03:21:45;6.10;;;5.60;;
33491;SDS011;20010;51.488;7.232;2023-04-12T03:24:12;7.75;;;5.90;;
33491;SDS011;20010;51.488;7.232;2023-04-12T03:26:39;6.75;;;6.18;;
33491;SDS011;20010;51.488;7.232;2023-04-12T03:29:07;6.63;;;6.03;;
33491;SDS011;20010;51.488;7.232;2023-04-12T03:31:36;5.47;;;5.13;;
33491;SDS011;20010;51.488;7.232;2023-04-12T03:34:03;5.68;;;5.18;;
33491;SDS011;20010;51.488;7.232;2023-04-12T03:36:29;5.72;;;5.22;;
33491;SDS011;20010;51.488;7.232;2023-04-12T03:38:56;6.22;;;5.65;;
33491;SDS011;20010;51.488;7.232;2023-04-12T03:41:23;7.57;;;5.90;;
33491;SDS011;20010;51.488;7.232;2023-04-12T03:43:50;5.95;;;5.38;;
33491;SDS011;20010;51.488;7.232;2023-04-12T03:46:17;5.47;;;5.07;;
33491;SDS011;20010;51.488;7.232;2023-04-12T03:48:44;6.38;;;5.20;;
33491;SDS011;20010;51.488;7.232;2023-04-12T03:51:10;5.70;;;5.20;;
33491;SDS011;20010;51.488;7.232;2023-04-12T03:53:37;5.05;;;4.75;;
33491;SDS011;20010;51.488;7.232;2023-04-12T03:56:04;5.43;;;5.03;;
33491;SDS011;20010;51.488;7.232;2023-04-12T03:58:31;5.45;;;5.10;;
33491;SDS011;20010;51.488;7.232;2023-04-12T04:01:02;5.32;;;4.93;;
33491;SDS011;20010;51.488;7.232;2023-04-12T04:03:31;5.80;;;5.25;;
33491;SDS011;20010;51.488;7.232;2023-04-12T04:06:00;5.80;;;5.35;;
33491;SDS011;20010;51.488;7.232;2023-04-12T04:08:27;6.75;;;5.05;;
33491;SDS011;20010;51.488;7.232;2023-04-12T04:10:55;5.40;;;4.97;;
33491;SDS011;20010;51.488;7.232;2023-04-12T04:13:22;5.38;;;4.97;;
33491;SDS011;20010;51.488;7.232;2023-04-12T04:15:50;5.70;;;4.97;;
33491;SDS011;20010;51.488;7.232;2023-04-12T04:18:22;6.15;;;5.65;;
33491;SDS011;20010;51.488;7.232;2023-04-12T04:20:48;5.43;;;5.00;;
33491;SDS011;20010;51.488;7.232;2023-04-12T04:23:15;5.28;;;4.80;;
33491;SDS011;20010;51.488;7.232;2023-04-12T04:25:42;6.00;;;5.40;;
33491;SDS011;20010;51.488;7.232;2023-04-12T04:28:10;5.32;;;5.03;;
33491;SDS011;20010;51.488;7.232;2023-04-12T04:30:36;5.53;;;5.22;;
33491;SDS011;20010;51.488;7.232;2023-04-12T04:33:07;5.47;;;5.15;;
33491;SDS011;20010;51.488;7.232;2023-04-12T04:35:34;5.32;;;5.03;;
33491;SDS011;20010;51.488;7.232;2023-04-12T04:40:31;5.93;;;5.18;;
33491;SDS011;20010;51.488;7.232;2023-04-12T04:42:58;4.93;;;4.70;;
33491;SDS011;20010;51.488;7.232;2023-04-12T04:45:24;5.50;;;5.20;;
33491;SDS011;20010;51.488;7.232;2023-04-12T04:47:52;8.25;;;7.45;;
33491;SDS011;20010;51.488;7.232;2023-04-12T04:50:22;5.15;;;4.90;;
33491;SDS011;20010;51.488;7.232;2023-04-12T04:52:49;5.38;;;5.07;;
33491;SDS011;20010;51.488;7.232;2023-04-12T04:55:16;6.43;;;6.03;;
33491;SDS011;20010;51.488;7.232;2023-04-12T04:57:43;6.10;;;5.40;;
33491;SDS011;20010;51.488;7.232;2023-04-12T05:02:40;6.68;;;6.13;;
33491;SDS011;20010;51.488;7.232;2023-04-12T05:05:11;5.32;;;4.93;;
33491;SDS011;20010;51.488;7.232;2023-04-12T05:07:42;5.72;;;5.18;;
33491;SDS011;20010;51.488;7.232;2023-04-12T05:10:09;5.57;;;5.07;;
33491;SDS011;20010;51.488;7.232;2023-04-12T05:12:36;5.30;;;5.00;;
33491;SDS011;20010;51.488;7.232;2023-04-12T05:15:03;5.10;;;4.70;;
33491;SDS011;20010;51.488;7.232;2023-04-12T05:17:39;5.10;;;4.80;;
33491;SDS011;20010;51.488;7.232;2023-04-12T05:20:06;5.15;;;4.93;;
33491;SDS011;20010;51.488;7.232;2023-04-12T05:22:33;4.93;;;4.70;;
33491;SDS011;20010;51.488;7.232;2023-04-12T05:25:00;5.05;;;4.78;;
33491;SDS011;20010;51.488;7.232;2023-04-12T05:27:27;6.25;;;5.50;;
33491;SDS011;20010;51.488;7.232;2023-04-12T05:29:58;5.80;;;5.30;;
33491;SDS011;20010;51.488;7.232;2023-04-12T05:32:24;5.55;;;5.15;;
33491;SDS011;20010;51.488;7.232;2023-04-12T05:34:51;7.28;;;6.68;;
33491;SDS011;20010;51.488;7.232;2023-04-12T05:37:18;4.70;;;4.50;;
33491;SDS011;20010;51.488;7.232;2023-04-12T05:39:44;5.53;;;5.07;;
33491;SDS011;20010;51.488;7.232;2023-04-12T05:42:11;5.85;;;5.35;;
33491;SDS011;20010;51.488;7.232;2023-04-12T05:44:37;5.53;;;5.07;;
33491;SDS011;20010;51.488;7.232;2023-04-12T05:47:04;4.80;;;4.60;;
33491;SDS011;20010;51.488;7.232;2023-04-12T05:49:31;5.45;;;5.03;;
33491;SDS011;20010;51.488;7.232;2023-04-12T05:51:57;6.78;;;5.32;;
33491;SDS011;20010;51.488;7.232;2023-04-12T05:54:24;5.28;;;4.80;;
33491;SDS011;20010;51.488;7.232;2023-04-12T05:56:51;5.80;;;4.70;;
33491;SDS011;20010;51.488;7.232;2023-04-12T05:59:20;4.85;;;4.55;;
33491;SDS011;20010;51.488;7.232;2023-04-12T06:01:47;6.30;;;5.70;;
33491;SDS011;20010;51.488;7.232;2023-04-12T06:04:14;5.22;;;4.80;;
33491;SDS011;20010;51.488;7.232;2023-04-12T06:06:41;5.68;;;5.18;;
33491;SDS011;20010;51.488;7.232;2023-04-12T06:09:09;5.70;;;5.03;;
33491;SDS011;20010;51.488;7.232;2023-04-12T06:11:35;5.82;;;5.30;;
33491;SDS011;20010;51.488;7.232;2023-04-12T06:14:04;5.15;;;4.68;;
33491;SDS011;20010;51.488;7.232;2023-04-12T06:16:31;5.00;;;4.72;;
33491;SDS011;20010;51.488;7.232;2023-04-12T06:18:58;4.90;;;4.60;;
33491;SDS011;20010;51.488;7.232;2023-04-12T06:21:25;4.90;;;4.60;;
33491;SDS011;20010;51.488;7.232;2023-04-12T06:23:51;6.15;;;5.65;;
33491;SDS011;20010;51.488;7.232;2023-04-12T06:26:18;4.75;;;4.40;;
33491;SDS011;20010;51.488;7.232;2023-04-12T06:28:44;6.28;;;5.68;;
33491;SDS011;20010;51.488;7.232;2023-04-12T06:31:11;4.50;;;4.30;;
33491;SDS011;20010;51.488;7.232;2023-04-12T06:33:38;4.30;;;4.03;;
33491;SDS011;20010;51.488;7.232;2023-04-12T06:36:04;4.20;;;4.00;;
33491;SDS011;20010;51.488;7.232;2023-04-12T06:38:31;4.63;;;4.00;;
33491;SDS011;20010;51.488;7.232;2023-04-12T06:40:58;4.63;;;4.32;;
33491;SDS011;20010;51.488;7.232;2023-04-12T06:43:25;4.50;;;4.20;;
33491;SDS011;20010;51.488;7.232;2023-04-12T06:45:52;4.32;;;4.03;;
33491;SDS011;20010;51.488;7.232;2023-04-12T06:48:18;4.22;;;4.00;;
33491;SDS011;20010;51.488;7.232;2023-04-12T06:50:45;4.10;;;3.90;;
33491;SDS011;20010;51.488;7.232;2023-04-12T06:53:11;4.30;;;4.07;;
33491;SDS011;20010;51.488;7.232;2023-04-12T06:55:41;4.40;;;4.20;;
33491;SDS011;20010;51.488;7.232;2023-04-12T06:58:07;4.00;;;3.80;;
33491;SDS011;20010;51.488;7.232;2023-04-12T07:00:34;3.95;;;3.70;;
33491;SDS011;20010;51.488;7.232;2023-04-12T07:03:01;4.07;;;3.70;;
33491;SDS011;20010;51.488;7.232;2023-04-12T07:05:27;4.85;;;3.65;;
33491;SDS011;20010;51.488;7.232;2023-04-12T07:07:54;3.60;;;3.40;;
33491;SDS011;20010;51.488;7.232;2023-04-12T07:10:21;4.43;;;4.03;;
33491;SDS011;20010;51.488;7.232;2023-04-12T07:12:47;3.90;;;3.63;;
33491;SDS011;20010;51.488;7.232;2023-04-12T07:15:14;3.88;;;3.58;;
33491;SDS011;20010;51.488;7.232;2023-04-12T07:17:41;3.97;;;3.72;;
33491;SDS011;20010;51.488;7.232;2023-04-12T07:20:08;4.25;;;3.95;;
33491;SDS011;20010;51.488;7.232;2023-04-12T07:22:35;3.78;;;3.58;;
33491;SDS011;20010;51.488;7.232;2023-04-12T07:25:01;3.85;;;3.47;;
33491;SDS011;20010;51.488;7.232;2023-04-12T07:27:30;4.30;;;3.90;;
33491;SDS011;20010;51.488;7.232;2023-04-12T07:29:56;3.45;;;3.35;;
33491;SDS011;20010;51.488;7.232;2023-04-12T07:32:24;5.85;;;4.20;;
33491;SDS011;20010;51.488;7.232;2023-04-12T07:34:50;3.55;;;3.35;;
33491;SDS011;20010;51.488;7.232;2023-04-12T07:37:18;4.10;;;3.63;;
33491;SDS011;20010;51.488;7.232;2023-04-12T07:39:45;3.40;;;3.30;;
33491;SDS011;20010;51.488;7.232;2023-04-12T07:42:12;3.55;;;3.40;;
33491;SDS011;20010;51.488;7.232;2023-04-12T07:44:38;3.55;;;3.35;;
33491;SDS011;20010;51.488;7.232;2023-04-12T07:47:05;3.72;;;3.53;;
33491;SDS011;20010;51.488;7.232;2023-04-12T07:49:32;4.10;;;3.80;;
33491;SDS011;20010;51.488;7.232;2023-04-12T07:51:59;3.40;;;3.30;;
33491;SDS011;20010;51.488;7.232;2023-04-12T07:54:26;3.50;;;3.28;;
33491;SDS011;20010;51.488;7.232;2023-04-12T07:56:56;3.40;;;3.30;;
33491;SDS011;20010;51.488;7.232;2023-04-12T07:59:27;3.22;;;3.03;;
33491;SDS011;20010;51.488;7.232;2023-04-12T08:01:54;4.57;;;4.28;;
33491;SDS011;20010;51.488;7.232;2023-04-12T08:04:20;3.28;;;3.17;;
33491;SDS011;20010;51.488;7.232;2023-04-12T08:06:47;3.00;;;2.90;;
33491;SDS011;20010;51.488;7.232;2023-04-12T08:09:14;3.33;;;3.13;;
33491;SDS011;20010;51.488;7.232;2023-04-12T08:11:40;3.20;;;3.10;;
33491;SDS011;20010;51.488;7.232;2023-04-12T08:14:07;3.50;;;3.30;;
33491;SDS011;20010;51.488;7.232;2023-04-12T08:16:34;3.13;;;2.90;;
33491;SDS011;20010;51.488;7.232;2023-04-12T08:19:00;3.28;;;3.05;;
33491;SDS011;20010;51.488;7.232;2023-04-12T08:21:27;3.13;;;3.00;;
33491;SDS011;20010;51.488;7.232;2023-04-12T08:23:55;3.80;;;3.47;;
33491;SDS011;20010;51.488;7.232;2023-04-12T08:26:22;3.50;;;3.30;;
33491;SDS011;20010;51.488;7.232;2023-04-12T08:28:49;3.20;;;3.10;;
33491;SDS011;20010;51.488;7.232;2023-04-12T08:31:15;3.53;;;3.40;;
33491;SDS011;20010;51.488;7.232;2023-04-12T08:33:43;3.30;;;3.10;;
33491;SDS011;20010;51.488;7.232;2023-04-12T08:36:09;3.53;;;3.40;;
33491;SDS011;20010;51.488;7.232;2023-04-12T08:38:36;3.38;;;3.20;;
33491;SDS011;20010;51.488;7.232;2023-04-12T08:41:11;3.15;;;3.05;;
33491;SDS011;20010;51.488;7.232;2023-04-12T08:43:39;3.25;;;2.95;;
33491;SDS011;20010;51.488;7.232;2023-04-12T08:46:08;3.10;;;3.00;;
33491;SDS011;20010;51.488;7.232;2023-04-12T08:48:35;3.00;;;2.90;;
33491;SDS011;20010;51.488;7.232;2023-04-12T08:51:02;3.20;;;3.10;;
33491;SDS011;20010;51.488;7.232;2023-04-12T08:53:29;3.65;;;3.42;;
33491;SDS011;20010;51.488;7.232;2023-04-12T08:55:56;3.20;;;3.10;;
33491;SDS011;20010;51.488;7.232;2023-04-12T08:58:23;3.15;;;2.95;;
33491;SDS011;20010;51.488;7.232;2023-04-12T09:00:50;3.00;;;2.90;;
33491;SDS011;20010;51.488;7.232;2023-04-12T09:03:16;3.42;;;2.95;;
33491;SDS011;20010;51.488;7.232;2023-04-12T09:05:43;3.33;;;3.13;;
33491;SDS011;20010;51.488;7.232;2023-04-12T09:08:10;3.30;;;3.10;;
33491;SDS011;20010;51.488;7.232;2023-04-12T09:10:37;3.83;;;3.53;;
33491;SDS011;20010;51.488;7.232;2023-04-12T09:13:04;3.45;;;3.15;;
33491;SDS011;20010;51.488;7.232;2023-04-12T09:15:32;3.00;;;2.90;;
33491;SDS011;20010;51.488;7.232;2023-04-12T09:18:09;3.28;;;3.15;;
33491;SDS011;20010;51.488;7.232;2023-04-12T09:20:37;3.00;;;2.80;;
33491;SDS011;20010;51.488;7.232;2023-04-12T09:23:20;3.08;;;2.88;;
33491;SDS011;20010;51.488;7.232;2023-04-12T09:25:49;3.00;;;2.90;;
33491;SDS011;20010;51.488;7.232;2023-04-12T09:28:25;3.08;;;2.97;;
33491;SDS011;20010;51.488;7.232;2023-04-12T09:30:53;3.30;;;3.10;;
33491;SDS011;20010;51.488;7.232;2023-04-12T09:33:34;3.83;;;3.70;;
33491;SDS011;20010;51.488;7.232;2023-04-12T09:36:03;3.40;;;3.20;;
33491;SDS011;20010;51.488;7.232;2023-04-12T09:38:30;3.22;;;3.13;;
33491;SDS011;20010;51.488;7.232;2023-04-12T09:41:16;3.72;;;3.53;;
33491;SDS011;20010;51.488;7.232;2023-04-12T09:43:48;3.40;;;3.20;;
33491;SDS011;20010;51.488;7.232;2023-04-12T09:46:15;3.08;;;2.97;;
33491;SDS011;20010;51.488;7.232;2023-04-12T09:48:49;3.15;;;3.05;;
33491;SDS011;20010;51.488;7.232;2023-04-12T09:51:24;3.40;;;3.10;;
33491;SDS011;20010;51.488;7.232;2023-04-12T09:53:51;3.22;;;3.13;;
33491;SDS011;20010;51.488;7.232;2023-04-12T09:56:18;3.30;;;3.20;;
33491;SDS011;20010;51.488;7.232;2023-04-12T09:58:50;3.72;;;3.47;;
33491;SDS011;20010;51.488;7.232;2023-04-12T10:01:18;3.42;;;3.13;;
33491;SDS011;20010;51.488;7.232;2023-04-12T10:03:48;3.83;;;3.33;;
33491;SDS011;20010;51.488;7.232;2023-04-12T10:06:15;3.25;;;3.13;;
33491;SDS011;20010;51.488;7.232;2023-04-12T10:08:43;3.15;;;2.90;;
33491;SDS011;20010;51.488;7.232;2023-04-12T10:11:11;3.20;;;3.10;;
33491;SDS011;20010;51.488;7.232;2023-04-12T10:13:37;3.70;;;3.40;;
33491;SDS011;20010;51.488;7.232;2023-04-12T10:16:05;3.50;;;3.17;;
33491;SDS011;20010;51.488;7.232;2023-04-12T10:18:33;3.40;;;3.30;;
33491;SDS011;20010;51.488;7.232;2023-04-12T10:21:02;3.10;;;3.00;;
33491;SDS011;20010;51.488;7.232;2023-04-12T10:23:32;3.28;;;3.17;;
33491;SDS011;20010;51.488;7.232;2023-04-12T10:26:00;3.42;;;3.22;;
33491;SDS011;20010;51.488;7.232;2023-04-12T10:28:27;3.40;;;3.20;;
33491;SDS011;20010;51.488;7.232;2023-04-12T10:30:57;3.10;;;3.00;;
33491;SDS011;20010;51.488;7.232;2023-04-12T10:33:28;3.50;;;3.20;;
33491;SDS011;20010;51.488;7.232;2023-04-12T10:38:25;3.30;;;3.10;;
33491;SDS011;20010;51.488;7.232;2023-04-12T10:41:19;3.13;;;3.03;;
33491;SDS011;20010;51.488;7.232;2023-04-12T10:43:46;3.00;;;2.90;;
33491;SDS011;20010;51.488;7.232;2023-04-12T10:51:39;3.17;;;2.97;;
33491;SDS011;20010;51.488;7.232;2023-04-12T10:54:34;2.92;;;2.83;;
33491;SDS011;20010;51.488;7.232;2023-04-12T10:57:05;2.90;;;2.80;;
33491;SDS011;20010;51.488;7.232;2023-04-12T11:02:24;3.30;;;3.20;;
33491;SDS011;20010;51.488;7.232;2023-04-12T11:07:38;3.53;;;3.40;;
33491;SDS011;20010;51.488;7.232;2023-04-12T11:10:12;3.78;;;3.67;;
33491;SDS011;20010;51.488;7.232;2023-04-12T11:12:48;3.60;;;3.40;;
33491;SDS011;20010;51.488;7.232;2023-04-12T11:15:15;4.03;;;3.83;;
33491;SDS011;20010;51.488;7.232;2023-04-12T11:17:51;4.30;;;4.03;;
33491;SDS011;20010;51.488;7.232;2023-04-12T11:20:19;4.50;;;4.20;;
33491;SDS011;20010;51.488;7.232;2023-04-12T11:22:45;5.07;;;4.78;;
33491;SDS011;20010;51.488;7.232;2023-04-12T11:25:15;5.03;;;4.68;;
33491;SDS011;20010;51.488;7.232;2023-04-12T11:27:49;4.75;;;4.45;;
33491;SDS011;20010;51.488;7.232;2023-04-12T11:30:17;4.47;;;4.28;;
33491;SDS011;20010;51.488;7.232;2023-04-12T11:32:45;4.60;;;4.30;;
33491;SDS011;20010;51.488;7.232;2023-04-12T11:35:15;4.40;;;4.20;;
33491;SDS011;20010;51.488;7.232;2023-04-12T11:37:42;5.97;;;5.45;;
33491;SDS011;20010;51.488;7.232;2023-04-12T11:40:09;5.03;;;4.63;;
33491;SDS011;20010;51.488;7.232;2023-04-12T11:42:37;4.35;;;4.10;;
33491;SDS011;20010;51.488;7.232;2023-04-12T11:45:05;4.32;;;4.13;;
33491;SDS011;20010;51.488;7.232;2023-04-12T11:47:42;5.28;;;4.90;;
33491;SDS011;20010;51.488;7.232;2023-04-12T11:50:10;5.30;;;5.00;;
33491;SDS011;20010;51.488;7.232;2023-04-12T11:52:37;5.05;;;4.65;;
33491;SDS011;20010;51.488;7.232;2023-04-12T11:55:06;5.30;;;4.88;;
33491;SDS011;20010;51.488;7.232;2023-04-12T11:57:37;5.10;;;4.73;;
33491;SDS011;20010;51.488;7.232;2023-04-12T12:00:04;4.85;;;4.57;;
33491;SDS011;20010;51.488;7.232;2023-04-12T12:02:32;4.63;;;4.32;;
33491;SDS011;20010;51.488;7.232;2023-04-12T12:05:11;5.00;;;3.80;;
33491;SDS011;20010;51.488;7.232;2023-04-12T12:07:38;4.28;;;4.00;;
33491;SDS011;20010;51.488;7.232;2023-04-12T12:10:05;6.43;;;4.35;;
33491;SDS011;20010;51.488;7.232;2023-04-12T12:12:32;4.53;;;4.13;;
33491;SDS011;20010;51.488;7.232;2023-04-12T12:14:59;3.80;;;3.60;;
33491;SDS011;20010;51.488;7.232;2023-04-12T12:17:27;4.72;;;4.30;;
33491;SDS011;20010;51.488;7.232;2023-04-12T12:19:55;4.50;;;4.10;;
33491;SDS011;20010;51.488;7.232;2023-04-12T12:22:23;3.95;;;3.75;;
33491;SDS011;20010;51.488;7.232;2023-04-12T12:24:50;4.47;;;4.10;;
33491;SDS011;20010;51.488;7.232;2023-04-12T12:29:55;4.65;;;4.20;;
33491;SDS011;20010;51.488;7.232;2023-04-12T12:32:31;4.90;;;4.60;;
33491;SDS011;20010;51.488;7.232;2023-04-12T12:35:06;4.20;;;4.00;;
33491;SDS011;20010;51.488;7.232;2023-04-12T12:37:34;4.25;;;3.97;;
33491;SDS011;20010;51.488;7.232;2023-04-12T12:40:08;4.75;;;4.30;;
33491;SDS011;20010;51.488;7.232;2023-04-12T12:42:43;6.20;;;5.05;;
33491;SDS011;20010;51.488;7.232;2023-04-12T12:45:18;5.68;;;5.28;;
33491;SDS011;20010;51.488;7.232;2023-04-12T12:50:27;6.30;;;5.38;;
33491;SDS011;20010;51.488;7.232;2023-04-12T12:52:58;11.10;;;5.90;;
33491;SDS011;20010;51.488;7.232;2023-04-12T12:55:26;8.43;;;5.20;;
33491;SDS011;20010;51.488;7.232;2023-04-12T12:57:54;7.53;;;5.32;;
33491;SDS011;20010;51.488;7.232;2023-04-12T13:00:33;5.63;;;4.90;;
33491;SDS011;20010;51.488;7.232;2023-04-12T13:03:00;6.20;;;5.60;;
33491;SDS011;20010;51.488;7.232;2023-04-12T13:05:28;5.88;;;5.53;;
33491;SDS011;20010;51.488;7.232;2023-04-12T13:07:55;7.35;;;5.70;;
33491;SDS011;20010;51.488;7.232;2023-04-12T13:10:21;8.02;;;5.95;;
33491;SDS011;20010;51.488;7.232;2023-04-12T13:12:48;6.15;;;5.60;;
33491;SDS011;20010;51.488;7.232;2023-04-12T13:15:15;6.85;;;5.32;;
33491;SDS011;20010;51.488;7.232;2023-04-12T13:17:52;6.15;;;5.60;;
33491;SDS011;20010;51.488;7.232;2023-04-12T13:22:47;6.28;;;5.78;;
33491;SDS011;20010;51.488;7.232;2023-04-12T13:25:14;6.38;;;5.78;;
33491;SDS011;20010;51.488;7.232;2023-04-12T13:27:40;6.82;;;5.38;;
33491;SDS011;20010;51.488;7.232;2023-04-12T13:30:07;5.75;;;5.20;;
33491;SDS011;20010;51.488;7.232;2023-04-12T13:32:34;7.85;;;5.45;;
33491;SDS011;20010;51.488;7.232;2023-04-12T13:35:01;10.13;;;6.72;;
33491;SDS011;20010;51.488;7.232;2023-04-12T13:37:28;6.88;;;5.90;;
33491;SDS011;20010;51.488;7.232;2023-04-12T13:39:55;9.05;;;6.00;;
33491;SDS011;20010;51.488;7.232;2023-04-12T13:42:21;6.88;;;6.20;;
33491;SDS011;20010;51.488;7.232;2023-04-12T13:44:48;6.65;;;5.97;;
33491;SDS011;20010;51.488;7.232;2023-04-12T13:47:15;6.78;;;5.60;;
33491;SDS011;20010;51.488;7.232;2023-04-12T13:49:43;7.70;;;6.90;;
33491;SDS011;20010;51.488;7.232;2023-04-12T13:52:09;7.60;;;6.22;;
33491;SDS011;20010;51.488;7.232;2023-04-12T13:54:36;8.57;;;7.20;;
33491;SDS011;20010;51.488;7.232;2023-04-12T13:57:02;7.53;;;6.80;;
33491;SDS011;20010;51.488;7.232;2023-04-12T13:59:33;11.13;;;7.20;;
33491;SDS011;20010;51.488;7.232;2023-04-12T14:02:00;10.20;;;7.47;;
33491;SDS011;20010;51.488;7.232;2023-04-12T14:04:28;7.15;;;6.55;;
33491;SDS011;20010;51.488;7.232;2023-04-12T14:06:56;6.85;;;6.15;;
33491;SDS011;20010;51.488;7.232;2023-04-12T14:09:27;13.75;;;6.57;;
33491;SDS011;20010;51.488;7.232;2023-04-12T14:11:55;6.45;;;5.90;;
33491;SDS011;20010;51.488;7.232;2023-04-12T14:14:24;9.32;;;6.32;;
33491;SDS011;20010;51.488;7.232;2023-04-12T14:16:51;6.93;;;6.25;;
33491;SDS011;20010;51.488;7.232;2023-04-12T14:19:20;6.80;;;6.05;;
33491;SDS011;20010;51.488;7.232;2023-04-12T14:21:47;7.38;;;6.50;;
33491;SDS011;20010;51.488;7.232;2023-04-12T14:24:14;7.82;;;7.03;;
33491;SDS011;20010;51.488;7.232;2023-04-12T14:26:41;7.10;;;6.43;;
33491;SDS011;20010;51.488;7.232;2023-04-12T14:29:10;9.27;;;8.38;;
33491;SDS011;20010;51.488;7.232;2023-04-12T14:31:38;9.82;;;8.25;;
33491;SDS011;20010;51.488;7.232;2023-04-12T14:34:08;8.52;;;7.72;;
33491;SDS011;20010;51.488;7.232;2023-04-12T14:36:36;11.23;;;8.55;;
33491;SDS011;20010;51.488;7.232;2023-04-12T14:39:02;8.77;;;7.95;;
33491;SDS011;20010;51.488;7.232;2023-04-12T14:41:29;8.75;;;7.85;;
33491;SDS011;20010;51.488;7.232;2023-04-12T14:44:00;8.02;;;7.22;;
33491;SDS011;20010;51.488;7.232;2023-04-12T14:46:26;7.82;;;7.07;;
33491;SDS011;20010;51.488;7.232;2023-04-12T14:48:53;12.35;;;7.40;;
33491;SDS011;20010;51.488;7.232;2023-04-12T14:51:22;8.75;;;7.20;;
33491;SDS011;20010;51.488;7.232;2023-04-12T14:53:49;11.45;;;7.32;;
33491;SDS011;20010;51.488;7.232;2023-04-12T14:56:19;9.50;;;7.32;;
33491;SDS011;20010;51.488;7.232;2023-04-12T14:58:53;12.88;;;7.30;;
33491;SDS011;20010;51.488;7.232;2023-04-12T15:01:21;9.93;;;7.97;;
33491;SDS011;20010;51.488;7.232;2023-04-12T15:03:49;9.82;;;8.43;;
33491;SDS011;20010;51.488;7.232;2023-04-12T15:06:17;11.60;;;7.45;;
33491;SDS011;20010;51.488;7.232;2023-04-12T15:08:50;11.32;;;8.00;;
33491;SDS011;20010;51.488;7.232;2023-04-12T15:11:19;7.68;;;6.75;;
33491;SDS011;20010;51.488;7.232;2023-04-12T15:13:47;13.80;;;7.65;;
33491;SDS011;20010;51.488;7.232;2023-04-12T15:16:15;12.60;;;7.65;;
33491;SDS011;20010;51.488;7.232;2023-04-12T15:18:41;8.55;;;6.72;;
33491;SDS011;20010;51.488;7.232;2023-04-12T15:21:08;10.68;;;6.22;;
33491;SDS011;20010;51.488;7.232;2023-04-12T15:23:37;8.70;;;5.72;;
33491;SDS011;20010;51.488;7.232;2023-04-12T15:26:04;6.90;;;6.18;;
33491;SDS011;20010;51.488;7.232;2023-04-12T15:28:34;7.28;;;6.13;;
33491;SDS011;20010;51.488;7.232;2023-04-12T15:31:01;6.80;;;5.60;;
33491;SDS011;20010;51.488;7.232;2023-04-12T15:33:29;8.70;;;5.90;;
33491;SDS011;20010;51.488;7.232;2023-04-12T15:36:00;8.43;;;6.15;;
33491;SDS011;20010;51.488;7.232;2023-04-12T15:38:27;8.25;;;6.03;;